Time;durP1;ratioP1;P1;durP2;ratioP2;P2;SDS_P1;SDS_P2;PMS_P1;PMS_P2;Temp;Humidity;BMP_temperature;BMP_pressure;BME280_temperature;BME280_humidity;BME280_pressure;Samples;Min_cycle;Max_cycle;Signal;HPM_P1;HPM_P2
2022/05/07 00:01:29;;;;;;;11.05;6.88;;;;;;;;;;4897441;29;20044;-68
2022/05/07 00:03:55;;;;;;;10.95;6.53;;;;;;;;;;4897564;29;20025;-68
2022/05/07 00:06:21;;;;;;;11.73;7.13;;;;;;;;;;4897645;29;20038;-67
2022/05/07 00:08:48;;;;;;;11.85;7.28;;;;;;;;;;4897249;29;20024;-67
2022/05/07 00:11:20;;;;;;;10.20;6.97;;;;;;;;;;4897263;29;20378;-68
2022/05/07 00:13:46;;;;;;;13.77;7.18;;;;;;;;;;4897531;29;20023;-68
2022/05/07 00:18:57;;;;;;;14.55;7.80;;;;;;;;;;4895555;29;20035;-68
2022/05/07 00:21:24;;;;;;;13.18;7.55;;;;;;;;;;4896937;29;20047;-67
2022/05/07 00:23:50;;;;;;;13.02;7.03;;;;;;;;;;4896901;29;20040;-68
2022/05/07 00:26:16;;;;;;;12.23;7.47;;;;;;;;;;4897503;29;20031;-68
2022/05/07 00:28:44;;;;;;;13.60;7.13;;;;;;;;;;4897010;29;20557;-67
2022/05/07 00:31:11;;;;;;;12.40;7.38;;;;;;;;;;4911555;29;20545;-67
2022/05/07 00:33:37;;;;;;;13.80;7.22;;;;;;;;;;4897483;29;20033;-67
2022/05/07 00:36:04;;;;;;;14.70;6.85;;;;;;;;;;4896476;29;20025;-68
2022/05/07 00:38:30;;;;;;;11.23;7.18;;;;;;;;;;4896855;29;20397;-68
2022/05/07 00:40:59;;;;;;;10.07;6.68;;;;;;;;;;4896908;29;20017;-68
2022/05/07 00:43:25;;;;;;;14.52;7.82;;;;;;;;;;4897095;29;20045;-68
2022/05/07 00:45:54;;;;;;;13.70;7.90;;;;;;;;;;4897352;29;20029;-67
2022/05/07 00:48:20;;;;;;;11.38;7.45;;;;;;;;;;4896761;29;20044;-68
2022/05/07 00:53:33;;;;;;;11.18;7.80;;;;;;;;;;4896573;29;20034;-68
2022/05/07 00:56:00;;;;;;;10.07;7.53;;;;;;;;;;4899550;29;20532;-68
2022/05/07 00:58:26;;;;;;;11.57;8.55;;;;;;;;;;4901153;29;20031;-68
2022/05/07 01:00:53;;;;;;;9.43;7.68;;;;;;;;;;4900878;29;20031;-68
2022/05/07 01:03:20;;;;;;;12.93;7.88;;;;;;;;;;4900907;29;20043;-68
2022/05/07 01:05:46;;;;;;;10.77;7.70;;;;;;;;;;4900207;29;20532;-68
2022/05/07 01:08:13;;;;;;;11.55;7.85;;;;;;;;;;4900534;29;20028;-67
2022/05/07 01:10:40;;;;;;;12.05;8.13;;;;;;;;;;4900668;29;20027;-67
2022/05/07 01:13:06;;;;;;;10.48;7.50;;;;;;;;;;4900806;29;20029;-68
2022/05/07 01:15:42;;;;;;;11.65;7.80;;;;;;;;;;4900790;29;20021;-67
2022/05/07 01:18:08;;;;;;;10.60;7.47;;;;;;;;;;4899415;29;20028;-68
2022/05/07 01:20:34;;;;;;;9.55;7.70;;;;;;;;;;4899755;29;20060;-67
2022/05/07 01:23:01;;;;;;;12.57;8.25;;;;;;;;;;4900232;29;20036;-68
2022/05/07 01:25:27;;;;;;;11.07;7.88;;;;;;;;;;4900488;29;20024;-68
2022/05/07 01:27:54;;;;;;;15.82;7.20;;;;;;;;;;4900387;29;20027;-68
2022/05/07 01:30:20;;;;;;;15.05;7.93;;;;;;;;;;4900549;29;20527;-67
2022/05/07 01:32:47;;;;;;;11.85;8.30;;;;;;;;;;4900438;29;20031;-68
2022/05/07 01:35:13;;;;;;;14.10;7.78;;;;;;;;;;4899699;29;20350;-68
2022/05/07 01:37:40;;;;;;;9.52;8.00;;;;;;;;;;4900158;29;20020;-68
2022/05/07 01:40:06;;;;;;;10.65;8.40;;;;;;;;;;4900269;29;20039;-67
2022/05/07 01:42:33;;;;;;;11.68;7.82;;;;;;;;;;4900603;29;20037;-67
2022/05/07 01:44:59;;;;;;;13.90;8.77;;;;;;;;;;4899968;29;20024;-67
2022/05/07 01:50:10;;;;;;;14.77;8.07;;;;;;;;;;4899907;29;20025;-67
2022/05/07 01:52:37;;;;;;;15.25;9.25;;;;;;;;;;4900067;29;20029;-67
2022/05/07 01:55:04;;;;;;;10.77;8.68;;;;;;;;;;4899940;29;20478;-68
2022/05/07 01:57:30;;;;;;;12.93;8.75;;;;;;;;;;4900172;29;20037;-68
2022/05/07 01:59:56;;;;;;;13.85;8.50;;;;;;;;;;4899662;29;20036;-67
2022/05/07 02:02:23;;;;;;;12.90;9.23;;;;;;;;;;4899310;29;20043;-67
2022/05/07 02:04:49;;;;;;;13.15;8.63;;;;;;;;;;4899449;29;20026;-67
2022/05/07 02:07:16;;;;;;;10.95;8.70;;;;;;;;;;4899064;29;20036;-67
2022/05/07 02:09:42;;;;;;;10.90;8.32;;;;;;;;;;4900055;29;20087;-68
2022/05/07 02:12:08;;;;;;;12.35;9.43;;;;;;;;;;4899244;29;20036;-67
2022/05/07 02:14:35;;;;;;;13.23;8.90;;;;;;;;;;4899286;29;20035;-68
2022/05/07 02:17:01;;;;;;;8.90;7.95;;;;;;;;;;4899308;29;20028;-69
2022/05/07 02:19:28;;;;;;;11.60;9.00;;;;;;;;;;4899623;29;20039;-68
2022/05/07 02:21:54;;;;;;;13.32;9.07;;;;;;;;;;4899190;29;20053;-68
2022/05/07 02:24:20;;;;;;;16.30;8.68;;;;;;;;;;4899576;29;20033;-69
2022/05/07 02:26:47;;;;;;;15.10;9.07;;;;;;;;;;4899178;29;20028;-69
2022/05/07 02:29:14;;;;;;;15.02;9.35;;;;;;;;;;4899007;29;20029;-69
2022/05/07 02:31:41;;;;;;;16.35;9.02;;;;;;;;;;4898723;29;20051;-69
2022/05/07 02:34:07;;;;;;;11.32;9.40;;;;;;;;;;4899332;29;20032;-68
2022/05/07 02:36:33;;;;;;;12.25;9.23;;;;;;;;;;4899857;29;20027;-68
2022/05/07 02:39:00;;;;;;;12.30;9.38;;;;;;;;;;4898700;29;20087;-69
2022/05/07 02:44:11;;;;;;;10.50;9.15;;;;;;;;;;4898685;29;20020;-68
2022/05/07 02:46:38;;;;;;;13.20;9.75;;;;;;;;;;4898750;29;20022;-69
2022/05/07 02:49:09;;;;;;;10.68;9.55;;;;;;;;;;4898841;29;20036;-69
2022/05/07 02:51:35;;;;;;;13.30;9.82;;;;;;;;;;4899316;29;20038;-68
2022/05/07 02:54:02;;;;;;;13.65;10.00;;;;;;;;;;4898608;29;20031;-68
2022/05/07 02:56:28;;;;;;;11.50;9.30;;;;;;;;;;4913158;29;20035;-68
2022/05/07 02:58:54;;;;;;;13.52;10.38;;;;;;;;;;4898451;29;20036;-68
2022/05/07 03:01:20;;;;;;;18.00;9.70;;;;;;;;;;4898557;29;22396;-68
2022/05/07 03:03:47;;;;;;;14.25;10.00;;;;;;;;;;4898849;29;20039;-68
2022/05/07 03:06:13;;;;;;;14.98;10.10;;;;;;;;;;4898555;29;20031;-69
2022/05/07 03:08:39;;;;;;;13.30;9.80;;;;;;;;;;4898332;29;20039;-68
2022/05/07 03:11:06;;;;;;;12.13;8.93;;;;;;;;;;4898317;29;20035;-68
2022/05/07 03:13:32;;;;;;;14.35;9.23;;;;;;;;;;4898529;29;20020;-68
2022/05/07 03:15:58;;;;;;;15.38;9.32;;;;;;;;;;4896810;29;20044;-69
2022/05/07 03:18:25;;;;;;;13.40;10.15;;;;;;;;;;4898594;29;20096;-68
2022/05/07 03:20:51;;;;;;;12.15;8.93;;;;;;;;;;4897960;29;20052;-68
2022/05/07 03:23:17;;;;;;;14.40;9.50;;;;;;;;;;4897865;29;20502;-68
2022/05/07 03:25:45;;;;;;;13.70;9.55;;;;;;;;;;4898210;29;20071;-69
2022/05/07 03:28:12;;;;;;;15.63;9.45;;;;;;;;;;4898332;29;20043;-69
2022/05/07 03:30:38;;;;;;;12.77;9.98;;;;;;;;;;4898512;29;20029;-68
2022/05/07 03:33:05;;;;;;;14.18;9.90;;;;;;;;;;4897885;29;20027;-68
2022/05/07 03:35:31;;;;;;;13.13;10.25;;;;;;;;;;4897825;29;20031;-68
2022/05/07 03:37:57;;;;;;;14.20;9.88;;;;;;;;;;4898264;29;20024;-69
2022/05/07 03:40:24;;;;;;;13.13;10.20;;;;;;;;;;4897804;29;20035;-69
2022/05/07 03:42:50;;;;;;;13.63;10.00;;;;;;;;;;4897929;29;20387;-69
2022/05/07 03:45:16;;;;;;;12.38;10.63;;;;;;;;;;4897684;29;20032;-68
2022/05/07 03:47:43;;;;;;;16.75;9.57;;;;;;;;;;4897906;29;20040;-69
2022/05/07 03:50:09;;;;;;;13.70;10.98;;;;;;;;;;4897501;29;20059;-69
2022/05/07 03:55:21;;;;;;;16.45;10.63;;;;;;;;;;4883615;29;22299;-69
2022/05/07 03:57:47;;;;;;;12.43;9.98;;;;;;;;;;4897083;29;20096;-68
2022/05/07 04:00:13;;;;;;;18.63;10.90;;;;;;;;;;4897273;29;20494;-68
2022/05/07 04:02:40;;;;;;;14.75;10.68;;;;;;;;;;4897310;29;20037;-68
2022/05/07 04:05:06;;;;;;;12.85;10.20;;;;;;;;;;4897288;29;20387;-69
2022/05/07 04:07:33;;;;;;;16.00;11.05;;;;;;;;;;4897387;29;20028;-68
2022/05/07 04:09:59;;;;;;;17.10;10.15;;;;;;;;;;4897537;29;20385;-69
2022/05/07 04:12:25;;;;;;;13.68;10.10;;;;;;;;;;4897682;29;20024;-68
2022/05/07 04:14:52;;;;;;;15.80;11.00;;;;;;;;;;4896785;29;20056;-68
2022/05/07 04:17:18;;;;;;;12.43;10.35;;;;;;;;;;4897495;29;20033;-68
2022/05/07 04:19:44;;;;;;;15.18;11.02;;;;;;;;;;4897582;29;20020;-68
2022/05/07 04:22:11;;;;;;;15.52;10.18;;;;;;;;;;4897046;29;20056;-69
2022/05/07 04:24:37;;;;;;;12.32;10.55;;;;;;;;;;4897667;29;20500;-68
2022/05/07 04:27:03;;;;;;;20.52;10.95;;;;;;;;;;4896924;29;20029;-68
2022/05/07 04:29:30;;;;;;;16.20;10.95;;;;;;;;;;4896522;29;20075;-68
2022/05/07 04:31:56;;;;;;;14.45;10.98;;;;;;;;;;4897002;29;20371;-69
2022/05/07 04:34:23;;;;;;;12.40;10.38;;;;;;;;;;4896747;29;20037;-69
2022/05/07 04:36:50;;;;;;;11.32;10.05;;;;;;;;;;4897206;29;20027;-68
2022/05/07 04:39:16;;;;;;;17.73;10.90;;;;;;;;;;4897226;29;20028;-69
2022/05/07 04:41:42;;;;;;;15.30;10.57;;;;;;;;;;4896666;29;20028;-67
2022/05/07 04:44:09;;;;;;;29.77;21.48;;;;;;;;;;4896697;29;20026;-69
2022/05/07 04:46:35;;;;;;;14.18;11.77;;;;;;;;;;4897138;29;20029;-68
2022/05/07 04:49:01;;;;;;;15.48;11.55;;;;;;;;;;4896861;29;20029;-69
2022/05/07 04:51:27;;;;;;;17.00;10.88;;;;;;;;;;4897243;29;20036;-68
2022/05/07 04:53:54;;;;;;;15.93;11.25;;;;;;;;;;4896876;29;20036;-68
2022/05/07 04:56:22;;;;;;;12.02;10.73;;;;;;;;;;4896220;29;20025;-69
2022/05/07 04:58:48;;;;;;;17.17;11.15;;;;;;;;;;4896728;29;20031;-68
2022/05/07 05:01:15;;;;;;;15.00;11.77;;;;;;;;;;4897076;29;20390;-68
2022/05/07 05:03:41;;;;;;;14.32;10.38;;;;;;;;;;4896938;29;20087;-68
2022/05/07 05:06:07;;;;;;;14.85;11.00;;;;;;;;;;4896598;29;20039;-68
2022/05/07 05:08:34;;;;;;;13.77;10.77;;;;;;;;;;4896779;29;20039;-68
2022/05/07 05:11:00;;;;;;;14.27;10.50;;;;;;;;;;4896482;29;20386;-69
2022/05/07 05:13:26;;;;;;;17.67;10.63;;;;;;;;;;4896747;29;20068;-68
2022/05/07 05:15:53;;;;;;;14.32;11.43;;;;;;;;;;4896693;29;20032;-69
2022/05/07 05:18:19;;;;;;;15.68;11.23;;;;;;;;;;4896038;29;20021;-68
2022/05/07 05:20:45;;;;;;;14.57;10.98;;;;;;;;;;4896260;29;20048;-68
2022/05/07 05:23:12;;;;;;;18.33;11.35;;;;;;;;;;4896310;29;20036;-69
2022/05/07 05:25:43;;;;;;;14.20;11.27;;;;;;;;;;4896228;29;20512;-68
2022/05/07 05:28:11;;;;;;;15.20;11.88;;;;;;;;;;4896447;29;20497;-68
2022/05/07 05:30:38;;;;;;;18.42;11.40;;;;;;;;;;4897462;29;20024;-68
2022/05/07 05:33:04;;;;;;;14.68;11.13;;;;;;;;;;4896450;29;20063;-68
2022/05/07 05:35:30;;;;;;;15.88;10.85;;;;;;;;;;4896476;29;20039;-68
2022/05/07 05:37:57;;;;;;;17.40;11.10;;;;;;;;;;4896683;29;20028;-69
2022/05/07 05:40:23;;;;;;;15.20;10.88;;;;;;;;;;4896242;29;20031;-69
2022/05/07 05:42:49;;;;;;;14.23;10.60;;;;;;;;;;4899158;29;20037;-68
2022/05/07 05:45:17;;;;;;;15.70;10.35;;;;;;;;;;4900264;29;20032;-68
2022/05/07 05:47:43;;;;;;;21.83;10.57;;;;;;;;;;4899898;29;20024;-68
2022/05/07 05:50:10;;;;;;;14.60;11.35;;;;;;;;;;4899869;29;20092;-68
2022/05/07 05:52:36;;;;;;;12.60;9.88;;;;;;;;;;4899988;29;20031;-69
2022/05/07 05:55:03;;;;;;;14.43;9.93;;;;;;;;;;4899510;29;20393;-68
2022/05/07 05:57:29;;;;;;;13.68;10.25;;;;;;;;;;4900413;29;20021;-68
2022/05/07 05:59:56;;;;;;;13.20;9.98;;;;;;;;;;4899688;29;20115;-68
2022/05/07 06:02:23;;;;;;;15.82;10.13;;;;;;;;;;4899476;29;20036;-69
2022/05/07 06:04:49;;;;;;;16.15;9.70;;;;;;;;;;4899318;29;20502;-68
2022/05/07 06:07:15;;;;;;;14.18;8.45;;;;;;;;;;4900178;29;20021;-68
2022/05/07 06:09:42;;;;;;;9.68;7.90;;;;;;;;;;4899712;29;20367;-68
2022/05/07 06:12:08;;;;;;;11.45;7.70;;;;;;;;;;4899581;29;20039;-68
2022/05/07 06:14:35;;;;;;;11.18;8.10;;;;;;;;;;4899304;29;20043;-68
2022/05/07 06:17:01;;;;;;;13.13;7.28;;;;;;;;;;4899451;29;20036;-68
2022/05/07 06:19:28;;;;;;;10.93;7.60;;;;;;;;;;4899356;29;20020;-68
2022/05/07 06:21:54;;;;;;;9.00;7.57;;;;;;;;;;4899362;29;20055;-68
2022/05/07 06:29:51;;;;;;;12.65;7.20;;;;;;;;;;4899070;29;20466;-68
2022/05/07 06:32:18;;;;;;;8.82;7.05;;;;;;;;;;4898810;29;20044;-68
2022/05/07 06:34:44;;;;;;;11.85;6.78;;;;;;;;;;4899027;29;20430;-68
2022/05/07 06:37:11;;;;;;;10.25;6.32;;;;;;;;;;4898974;29;20064;-69
2022/05/07 06:39:37;;;;;;;13.60;6.95;;;;;;;;;;4899090;29;20025;-68
2022/05/07 06:42:04;;;;;;;10.82;7.10;;;;;;;;;;4898773;29;20037;-69
2022/05/07 06:44:30;;;;;;;12.38;6.80;;;;;;;;;;4898861;29;20038;-68
2022/05/07 06:46:57;;;;;;;10.02;6.47;;;;;;;;;;4898779;29;20024;-68
2022/05/07 06:49:24;;;;;;;8.88;6.90;;;;;;;;;;4913340;29;20125;-68
2022/05/07 06:51:51;;;;;;;14.43;7.43;;;;;;;;;;4898926;29;20099;-69
2022/05/07 06:54:17;;;;;;;9.93;7.10;;;;;;;;;;4898381;29;20031;-68
2022/05/07 06:56:44;;;;;;;8.35;6.15;;;;;;;;;;4898612;29;20033;-68
2022/05/07 06:59:10;;;;;;;9.30;6.45;;;;;;;;;;4898899;29;20084;-69
2022/05/07 07:01:37;;;;;;;9.13;6.30;;;;;;;;;;4898804;29;20081;-68
2022/05/07 07:04:04;;;;;;;8.80;5.45;;;;;;;;;;4898480;29;20080;-68
2022/05/07 07:06:30;;;;;;;10.00;6.25;;;;;;;;;;4929420;29;20514;-68
2022/05/07 07:08:56;;;;;;;11.48;6.53;;;;;;;;;;4897920;29;20039;-68
2022/05/07 07:11:24;;;;;;;7.65;5.97;;;;;;;;;;4898471;29;20035;-68
2022/05/07 07:13:51;;;;;;;10.98;5.95;;;;;;;;;;4898186;29;20359;-68
2022/05/07 07:16:18;;;;;;;9.25;6.07;;;;;;;;;;4898237;29;20032;-68
2022/05/07 07:18:44;;;;;;;7.25;5.68;;;;;;;;;;4898985;29;20025;-68
2022/05/07 07:21:12;;;;;;;8.13;5.65;;;;;;;;;;4897776;29;20049;-68
2022/05/07 07:23:39;;;;;;;7.72;4.95;;;;;;;;;;4897895;29;20047;-68
2022/05/07 07:26:05;;;;;;;8.40;5.20;;;;;;;;;;4898066;29;20478;-69
2022/05/07 07:28:31;;;;;;;6.05;5.30;;;;;;;;;;4898056;29;20021;-68
2022/05/07 07:30:58;;;;;;;7.07;4.93;;;;;;;;;;4898202;29;20032;-69
2022/05/07 07:33:24;;;;;;;7.13;4.63;;;;;;;;;;4898376;29;20027;-69
2022/05/07 07:35:51;;;;;;;4.88;4.43;;;;;;;;;;4897507;29;20506;-67
2022/05/07 07:38:17;;;;;;;6.45;3.80;;;;;;;;;;4896493;29;20035;-66
2022/05/07 07:40:49;;;;;;;6.78;4.03;;;;;;;;;;4897715;29;20430;-66
2022/05/07 07:43:19;;;;;;;10.52;3.40;;;;;;;;;;4897700;29;20044;-66
2022/05/07 07:48:32;;;;;;;8.75;3.72;;;;;;;;;;4898189;29;20397;-66
2022/05/07 07:50:58;;;;;;;13.45;3.85;;;;;;;;;;4927600;29;20032;-66
2022/05/07 07:53:24;;;;;;;7.70;3.53;;;;;;;;;;4897566;29;20024;-66
2022/05/07 07:55:51;;;;;;;7.45;3.28;;;;;;;;;;4897681;29;20032;-66
2022/05/07 07:58:18;;;;;;;7.07;3.30;;;;;;;;;;4897718;29;20029;-66
2022/05/07 08:00:45;;;;;;;3.92;2.90;;;;;;;;;;4898162;29;20474;-66
2022/05/07 08:03:12;;;;;;;6.22;2.80;;;;;;;;;;4897313;29;20044;-66
2022/05/07 08:05:38;;;;;;;7.13;2.70;;;;;;;;;;4896269;29;20028;-66
2022/05/07 08:13:36;;;;;;;4.32;3.40;;;;;;;;;;4897215;29;20024;-66
2022/05/07 08:16:03;;;;;;;6.53;2.97;;;;;;;;;;4897368;29;20461;-66
2022/05/07 08:18:30;;;;;;;3.92;3.22;;;;;;;;;;4898109;29;20035;-66
2022/05/07 08:20:57;;;;;;;6.28;3.13;;;;;;;;;;4896677;29;20047;-66
2022/05/07 08:23:25;;;;;;;9.80;3.45;;;;;;;;;;4896930;29;20028;-66
2022/05/07 08:25:52;;;;;;;8.30;3.17;;;;;;;;;;4897500;29;20096;-66
2022/05/07 08:28:18;;;;;;;6.95;3.03;;;;;;;;;;4896933;29;20039;-66
2022/05/07 08:30:45;;;;;;;4.05;2.92;;;;;;;;;;4897686;29;20470;-66
2022/05/07 08:33:12;;;;;;;7.80;3.20;;;;;;;;;;4897469;29;20032;-66
2022/05/07 08:35:38;;;;;;;9.98;2.75;;;;;;;;;;4896759;29;20039;-66
2022/05/07 08:38:05;;;;;;;7.82;3.10;;;;;;;;;;4896824;29;20390;-67
2022/05/07 08:40:31;;;;;;;7.28;3.40;;;;;;;;;;4896829;29;20409;-66
2022/05/07 08:42:58;;;;;;;3.50;3.05;;;;;;;;;;4897033;29;20312;-66
2022/05/07 08:45:24;;;;;;;6.82;2.95;;;;;;;;;;4897279;29;20414;-66
2022/05/07 08:47:53;;;;;;;7.95;3.15;;;;;;;;;;4895781;29;20056;-66
2022/05/07 08:50:20;;;;;;;9.20;3.03;;;;;;;;;;4896388;29;20025;-66
2022/05/07 08:52:46;;;;;;;6.57;2.50;;;;;;;;;;4895493;29;20043;-67
2022/05/07 08:55:19;;;;;;;5.75;2.70;;;;;;;;;;4896785;29;20028;-66
2022/05/07 08:57:46;;;;;;;5.05;2.90;;;;;;;;;;4893730;29;20029;-67
2022/05/07 09:00:14;;;;;;;3.30;2.63;;;;;;;;;;4897063;29;20028;-66
2022/05/07 09:02:48;;;;;;;6.38;2.80;;;;;;;;;;4896458;29;20051;-68
2022/05/07 09:05:15;;;;;;;6.05;2.58;;;;;;;;;;4896545;29;20025;-66
2022/05/07 09:07:51;;;;;;;4.47;2.65;;;;;;;;;;4896587;29;20029;-66
2022/05/07 09:10:19;;;;;;;5.05;2.80;;;;;;;;;;4882210;29;20035;-66
2022/05/07 09:12:46;;;;;;;3.95;2.92;;;;;;;;;;4897242;29;20028;-67
2022/05/07 09:15:12;;;;;;;4.53;2.85;;;;;;;;;;4896774;29;20033;-66
2022/05/07 09:17:38;;;;;;;4.13;2.47;;;;;;;;;;4899831;29;20032;-68
2022/05/07 09:20:12;;;;;;;5.90;2.80;;;;;;;;;;4900156;29;20031;-66
2022/05/07 09:22:55;;;;;;;4.60;2.63;;;;;;;;;;4900285;29;20036;-67
2022/05/07 09:25:22;;;;;;;5.13;2.50;;;;;;;;;;4886115;29;20043;-66
2022/05/07 09:27:51;;;;;;;5.40;2.90;;;;;;;;;;4900558;29;20039;-66
2022/05/07 09:30:21;;;;;;;6.10;2.90;;;;;;;;;;4900290;29;20044;-66
2022/05/07 09:32:49;;;;;;;3.90;2.45;;;;;;;;;;4930119;29;20508;-67
2022/05/07 09:38:01;;;;;;;8.45;2.70;;;;;;;;;;4900187;29;20028;-66
2022/05/07 09:40:28;;;;;;;4.22;2.20;;;;;;;;;;4900360;29;20025;-66
2022/05/07 09:42:58;;;;;;;17.45;3.25;;;;;;;;;;4900089;29;20037;-66
2022/05/07 09:45:28;;;;;;;4.90;2.65;;;;;;;;;;4899109;29;20039;-66
2022/05/07 09:47:55;;;;;;;6.35;2.83;;;;;;;;;;4899383;29;20032;-66
2022/05/07 09:58:35;;;;;;;5.25;2.15;;;;;;;;;;4899915;29;20037;-66
2022/05/07 10:01:04;;;;;;;3.80;2.20;;;;;;;;;;4899342;29;20393;-66
2022/05/07 10:03:42;;;;;;;7.25;2.20;;;;;;;;;;4899947;29;20052;-66
2022/05/07 10:06:24;;;;;;;2.60;2.08;;;;;;;;;;4899393;29;20385;-66
2022/05/07 10:09:02;;;;;;;3.53;2.58;;;;;;;;;;4899342;29;20033;-66
2022/05/07 10:11:29;;;;;;;3.53;2.20;;;;;;;;;;4899460;29;20023;-66
2022/05/07 10:13:56;;;;;;;4.88;2.13;;;;;;;;;;4899359;29;20040;-66
2022/05/07 10:16:23;;;;;;;3.88;2.10;;;;;;;;;;4899026;29;20389;-66
2022/05/07 10:18:49;;;;;;;4.97;2.33;;;;;;;;;;4899697;29;20390;-66
2022/05/07 10:21:17;;;;;;;2.88;2.03;;;;;;;;;;4899573;29;20056;-66
2022/05/07 10:23:56;;;;;;;2.63;2.03;;;;;;;;;;4899021;29;20048;-66
2022/05/07 10:26:45;;;;;;;5.07;2.00;;;;;;;;;;4899217;29;20025;-66
2022/05/07 10:29:22;;;;;;;4.50;2.08;;;;;;;;;;4897290;29;20025;-66
2022/05/07 10:31:48;;;;;;;3.45;2.38;;;;;;;;;;4899053;29;20035;-66
2022/05/07 10:34:25;;;;;;;4.68;2.15;;;;;;;;;;4884098;29;20146;-68
2022/05/07 10:37:04;;;;;;;5.28;2.30;;;;;;;;;;4896306;29;20482;-66
2022/05/07 10:39:31;;;;;;;5.40;2.30;;;;;;;;;;4899472;29;20033;-66
2022/05/07 10:41:58;;;;;;;5.40;3.00;;;;;;;;;;4898706;29;20402;-66
2022/05/07 10:44:34;;;;;;;4.28;2.50;;;;;;;;;;4898580;29;20043;-66
2022/05/07 10:47:10;;;;;;;6.65;2.22;;;;;;;;;;4898825;29;20453;-66
2022/05/07 10:49:49;;;;;;;4.65;2.60;;;;;;;;;;4898783;29;20025;-66
2022/05/07 10:52:15;;;;;;;2.72;1.90;;;;;;;;;;4883976;29;20031;-68
2022/05/07 10:54:41;;;;;;;4.60;1.70;;;;;;;;;;4899407;29;20028;-69
2022/05/07 10:57:08;;;;;;;2.67;1.40;;;;;;;;;;4898828;29;20036;-68
2022/05/07 10:59:34;;;;;;;5.25;1.60;;;;;;;;;;4898334;29;20379;-69
2022/05/07 11:02:04;;;;;;;2.88;1.33;;;;;;;;;;4898847;29;20023;-68
2022/05/07 11:04:30;;;;;;;3.33;1.40;;;;;;;;;;4898554;29;20067;-69
2022/05/07 11:06:57;;;;;;;2.47;1.52;;;;;;;;;;4898799;29;20025;-69
2022/05/07 11:09:24;;;;;;;4.18;1.33;;;;;;;;;;4899212;29;20071;-68
2022/05/07 11:11:53;;;;;;;3.40;1.50;;;;;;;;;;4898707;29;20230;-68
2022/05/07 11:14:22;;;;;;;3.67;1.70;;;;;;;;;;4897935;29;20028;-69
2022/05/07 11:16:48;;;;;;;5.63;1.63;;;;;;;;;;4898349;29;20375;-68
2022/05/07 11:19:25;;;;;;;2.70;1.65;;;;;;;;;;4898500;29;20031;-68
2022/05/07 11:21:55;;;;;;;2.20;1.33;;;;;;;;;;4895592;29;20045;-68
2022/05/07 11:24:21;;;;;;;5.00;1.30;;;;;;;;;;4898162;29;20032;-68
2022/05/07 11:26:54;;;;;;;4.45;1.50;;;;;;;;;;4898124;29;20371;-68
2022/05/07 11:29:21;;;;;;;1.40;1.30;;;;;;;;;;4897642;29;20406;-68
2022/05/07 11:32:07;;;;;;;2.35;1.30;;;;;;;;;;4898333;29;20025;-68
2022/05/07 11:34:40;;;;;;;5.35;1.40;;;;;;;;;;4885410;29;20394;-69
2022/05/07 11:37:15;;;;;;;3.90;1.23;;;;;;;;;;4898348;29;20040;-68
2022/05/07 11:39:47;;;;;;;4.43;1.40;;;;;;;;;;4897762;29;20071;-68
2022/05/07 11:42:26;;;;;;;2.30;1.40;;;;;;;;;;4897458;29;20068;-68
2022/05/07 11:47:38;;;;;;;2.53;1.30;;;;;;;;;;4897687;29;20029;-69
2022/05/07 11:50:07;;;;;;;6.15;1.50;;;;;;;;;;4928027;29;20482;-69
2022/05/07 11:52:34;;;;;;;4.45;1.33;;;;;;;;;;4897716;29;20029;-68
2022/05/07 11:55:07;;;;;;;3.88;1.40;;;;;;;;;;4897779;29;20025;-68
2022/05/07 11:57:35;;;;;;;22.85;2.45;;;;;;;;;;4926950;29;20034;-69
2022/05/07 12:00:17;;;;;;;4.68;1.60;;;;;;;;;;4897399;29;20028;-69
2022/05/07 12:02:53;;;;;;;3.47;1.55;;;;;;;;;;4897608;29;20041;-69
2022/05/07 12:05:19;;;;;;;7.28;1.55;;;;;;;;;;4897572;29;20024;-68
2022/05/07 12:07:47;;;;;;;4.30;1.63;;;;;;;;;;4927763;29;20490;-69
2022/05/07 12:10:13;;;;;;;3.05;1.50;;;;;;;;;;4897342;29;20036;-69
2022/05/07 12:12:40;;;;;;;7.95;1.70;;;;;;;;;;4897969;29;20021;-68
2022/05/07 12:15:06;;;;;;;10.75;1.80;;;;;;;;;;4897255;29;20033;-68
2022/05/07 12:20:18;;;;;;;3.08;1.20;;;;;;;;;;4896968;29;20504;-68
2022/05/07 12:31:02;;;;;;;4.45;1.50;;;;;;;;;;4895415;29;20025;-68
2022/05/07 12:33:29;;;;;;;2.85;1.40;;;;;;;;;;4895872;29;20032;-69
2022/05/07 12:35:55;;;;;;;8.30;1.50;;;;;;;;;;4897054;29;20039;-68
2022/05/07 12:38:21;;;;;;;3.30;1.30;;;;;;;;;;4897092;29;20035;-68
2022/05/07 12:40:48;;;;;;;3.42;1.40;;;;;;;;;;4896797;29;20490;-68
2022/05/07 12:43:14;;;;;;;5.78;1.40;;;;;;;;;;4911685;29;20052;-69
2022/05/07 12:45:42;;;;;;;4.15;1.50;;;;;;;;;;4897586;29;20025;-69
2022/05/07 12:48:09;;;;;;;6.78;1.52;;;;;;;;;;4896832;29;20032;-69
2022/05/07 12:50:35;;;;;;;6.95;1.35;;;;;;;;;;4896771;29;20036;-68
2022/05/07 12:53:01;;;;;;;8.65;1.77;;;;;;;;;;4896651;29;20039;-68
2022/05/07 12:55:27;;;;;;;3.30;1.33;;;;;;;;;;4896709;29;20031;-68
2022/05/07 12:57:54;;;;;;;3.10;1.38;;;;;;;;;;4896971;29;20029;-69
2022/05/07 13:00:20;;;;;;;6.43;1.50;;;;;;;;;;4897140;29;20080;-68
2022/05/07 13:02:52;;;;;;;3.38;1.20;;;;;;;;;;4896499;29;20395;-68
2022/05/07 13:05:18;;;;;;;2.40;1.20;;;;;;;;;;4896720;29;20478;-68
2022/05/07 13:07:45;;;;;;;3.55;1.20;;;;;;;;;;4896758;29;20020;-68
2022/05/07 13:10:11;;;;;;;3.67;1.17;;;;;;;;;;4895321;29;20490;-69
2022/05/07 13:12:39;;;;;;;2.00;1.25;;;;;;;;;;4897456;29;20031;-69
2022/05/07 13:15:05;;;;;;;2.60;1.27;;;;;;;;;;4896699;29;20028;-69
2022/05/07 13:17:32;;;;;;;3.92;1.40;;;;;;;;;;4896610;29;20041;-68
2022/05/07 13:19:58;;;;;;;1.95;1.30;;;;;;;;;;4896516;29;20027;-70
2022/05/07 13:22:26;;;;;;;2.60;1.30;;;;;;;;;;4896514;29;20524;-68
2022/05/07 13:24:52;;;;;;;2.15;1.20;;;;;;;;;;4896722;29;20035;-69
2022/05/07 13:27:18;;;;;;;6.25;1.50;;;;;;;;;;4896965;29;20471;-68
2022/05/07 13:29:44;;;;;;;2.50;1.15;;;;;;;;;;4896588;29;20046;-69
2022/05/07 13:32:11;;;;;;;5.80;1.50;;;;;;;;;;4896341;29;20486;-69
2022/05/07 13:34:37;;;;;;;3.88;1.20;;;;;;;;;;4896626;29;20037;-69
2022/05/07 13:37:04;;;;;;;4.55;1.30;;;;;;;;;;4896772;29;20021;-68
2022/05/07 13:39:30;;;;;;;2.35;1.20;;;;;;;;;;4896757;29;20058;-68
2022/05/07 13:41:59;;;;;;;4.00;1.33;;;;;;;;;;4896305;29;20025;-69
2022/05/07 13:44:25;;;;;;;2.58;1.40;;;;;;;;;;4896315;29;20402;-68
2022/05/07 13:46:51;;;;;;;2.35;1.40;;;;;;;;;;4896588;29;20029;-68
2022/05/07 13:49:18;;;;;;;7.13;0.95;;;;;;;;;;4896741;29;20025;-68
2022/05/07 13:51:44;;;;;;;3.90;1.35;;;;;;;;;;4897234;29;20039;-69
2022/05/07 13:54:10;;;;;;;4.03;1.33;;;;;;;;;;4895853;29;20375;-68
2022/05/07 13:56:37;;;;;;;3.70;1.30;;;;;;;;;;4896371;29;20024;-69
2022/05/07 13:59:03;;;;;;;1.88;1.20;;;;;;;;;;4896462;29;20029;-68
2022/05/07 14:01:29;;;;;;;4.03;1.27;;;;;;;;;;4896409;29;20410;-68
2022/05/07 14:03:56;;;;;;;4.88;1.30;;;;;;;;;;4898921;29;20044;-68
2022/05/07 14:06:22;;;;;;;4.47;1.48;;;;;;;;;;4900251;29;20033;-68
2022/05/07 14:08:49;;;;;;;2.15;1.00;;;;;;;;;;4899285;29;20085;-68
2022/05/07 14:11:15;;;;;;;2.92;1.20;;;;;;;;;;4899474;29;20055;-68
2022/05/07 14:13:42;;;;;;;3.53;1.45;;;;;;;;;;4899511;29;20031;-68
2022/05/07 14:16:08;;;;;;;2.55;1.48;;;;;;;;;;4899827;29;20070;-69
2022/05/07 14:18:35;;;;;;;3.88;1.48;;;;;;;;;;4900316;29;20035;-68
2022/05/07 14:21:02;;;;;;;5.22;2.00;;;;;;;;;;4899143;29;20056;-68
2022/05/07 14:23:28;;;;;;;3.47;1.38;;;;;;;;;;4898773;29;20040;-68
2022/05/07 14:25:54;;;;;;;3.47;1.40;;;;;;;;;;4899239;29;20028;-68
2022/05/07 14:28:21;;;;;;;2.72;1.27;;;;;;;;;;4899541;29;20030;-68
2022/05/07 14:30:47;;;;;;;3.90;1.50;;;;;;;;;;4899797;29;20490;-68
2022/05/07 14:33:13;;;;;;;3.28;2.03;;;;;;;;;;4899187;29;20032;-68
2022/05/07 14:35:40;;;;;;;2.83;1.60;;;;;;;;;;4899401;29;20027;-69
2022/05/07 14:38:08;;;;;;;7.47;1.30;;;;;;;;;;4898639;29;20024;-69
2022/05/07 14:40:38;;;;;;;6.38;1.80;;;;;;;;;;4899113;29;20028;-69
2022/05/07 14:43:05;;;;;;;3.65;1.20;;;;;;;;;;4899046;29;20044;-69
2022/05/07 14:45:32;;;;;;;2.55;1.20;;;;;;;;;;4899454;29;20091;-69
2022/05/07 14:47:59;;;;;;;3.60;1.40;;;;;;;;;;4899114;29;20024;-69
2022/05/07 14:50:26;;;;;;;3.92;1.30;;;;;;;;;;4898900;29;20031;-68
2022/05/07 14:52:53;;;;;;;3.30;1.45;;;;;;;;;;4898420;29;20025;-68
2022/05/07 14:55:20;;;;;;;1.52;1.20;;;;;;;;;;4898872;29;20017;-68
2022/05/07 14:57:47;;;;;;;3.10;1.52;;;;;;;;;;4899368;29;20033;-69
2022/05/07 15:00:13;;;;;;;3.45;1.20;;;;;;;;;;4898727;29;20027;-68
2022/05/07 15:02:47;;;;;;;2.50;1.38;;;;;;;;;;4898478;29;20040;-68
2022/05/07 15:05:16;;;;;;;2.35;1.10;;;;;;;;;;4898205;29;20043;-68
2022/05/07 15:07:43;;;;;;;1.25;1.00;;;;;;;;;;4898506;29;20503;-69
2022/05/07 15:12:55;;;;;;;2.60;1.20;;;;;;;;;;4896009;29;20036;-69
2022/05/07 15:15:22;;;;;;;4.70;1.30;;;;;;;;;;4898583;29;20025;-68
2022/05/07 15:17:48;;;;;;;4.00;1.10;;;;;;;;;;4898564;29;20048;-69
2022/05/07 15:20:15;;;;;;;5.18;1.30;;;;;;;;;;4897743;29;20021;-68
2022/05/07 15:22:42;;;;;;;1.88;1.30;;;;;;;;;;4898500;29;20158;-68
2022/05/07 15:25:09;;;;;;;2.60;1.20;;;;;;;;;;4898545;29;20039;-68
2022/05/07 15:27:35;;;;;;;3.92;1.50;;;;;;;;;;4899024;29;20393;-68
2022/05/07 15:30:02;;;;;;;3.60;1.38;;;;;;;;;;4928373;29;20413;-68
2022/05/07 15:37:58;;;;;;;2.72;1.30;;;;;;;;;;4896748;29;20084;-68